sensor_id;sensor_type;location;lat;lon;timestamp;temperature;humidity
31575;DHT22;18182;1.328;103.810;2022-11-11T00:00:03;28.50;99.90
31575;DHT22;18182;1.328;103.810;2022-11-11T00:02:29;28.60;99.90
31575;DHT22;18182;1.328;103.810;2022-11-11T00:04:56;28.60;99.90
31575;DHT22;18182;1.328;103.810;2022-11-11T00:07:22;28.70;99.90
31575;DHT22;18182;1.328;103.810;2022-11-11T00:09:48;28.80;99.90
31575;DHT22;18182;1.328;103.810;2022-11-11T00:12:14;28.80;99.90
31575;DHT22;18182;1.328;103.810;2022-11-11T00:14:40;28.90;99.90
31575;DHT22;18182;1.328;103.810;2022-11-11T00:17:08;28.90;99.90
31575;DHT22;18182;1.328;103.810;2022-11-11T00:19:53;29.00;99.90
31575;DHT22;18182;1.328;103.810;2022-11-11T00:22:37;29.00;99.90
31575;DHT22;18182;1.328;103.810;2022-11-11T00:25:22;29.20;99.90
31575;DHT22;18182;1.328;103.810;2022-11-11T00:27:48;29.20;99.90
31575;DHT22;18182;1.328;103.810;2022-11-11T00:30:14;29.30;99.90
31575;DHT22;18182;1.328;103.810;2022-11-11T00:32:40;29.40;99.90
31575;DHT22;18182;1.328;103.810;2022-11-11T00:35:06;29.60;99.90
31575;DHT22;18182;1.328;103.810;2022-11-11T00:37:51;29.70;99.90
31575;DHT22;18182;1.328;103.810;2022-11-11T00:40:17;29.80;99.90
31575;DHT22;18182;1.328;103.810;2022-11-11T00:42:43;29.80;99.90
31575;DHT22;18182;1.328;103.810;2022-11-11T00:45:09;29.80;99.90
31575;DHT22;18182;1.328;103.810;2022-11-11T00:47:36;29.80;99.90
31575;DHT22;18182;1.328;103.810;2022-11-11T00:50:25;29.80;99.90
31575;DHT22;18182;1.328;103.810;2022-11-11T00:53:11;29.80;99.90
31575;DHT22;18182;1.328;103.810;2022-11-11T00:55:37;29.90;99.90
31575;DHT22;18182;1.328;103.810;2022-11-11T00:58:04;29.90;99.90
31575;DHT22;18182;1.328;103.810;2022-11-11T01:00:30;30.00;99.90
31575;DHT22;18182;1.328;103.810;2022-11-11T01:02:57;30.00;99.90
31575;DHT22;18182;1.328;103.810;2022-11-11T01:05:29;30.10;99.90
31575;DHT22;18182;1.328;103.810;2022-11-11T01:07:55;30.10;99.90
31575;DHT22;18182;1.328;103.810;2022-11-11T01:10:22;30.10;99.90
31575;DHT22;18182;1.328;103.810;2022-11-11T01:13:04;30.10;99.90
31575;DHT22;18182;1.328;103.810;2022-11-11T01:15:37;30.00;99.90
31575;DHT22;18182;1.328;103.810;2022-11-11T01:18:03;30.10;99.90
31575;DHT22;18182;1.328;103.810;2022-11-11T01:20:29;30.10;99.90
31575;DHT22;18182;1.328;103.810;2022-11-11T01:22:55;30.00;99.90
31575;DHT22;18182;1.328;103.810;2022-11-11T01:25:22;30.00;99.90
31575;DHT22;18182;1.328;103.810;2022-11-11T01:27:48;30.00;99.90
31575;DHT22;18182;1.328;103.810;2022-11-11T01:30:14;30.00;99.90
31575;DHT22;18182;1.328;103.810;2022-11-11T01:32:41;29.90;99.90
31575;DHT22;18182;1.328;103.810;2022-11-11T01:35:07;29.80;99.90
31575;DHT22;18182;1.328;103.810;2022-11-11T01:37:33;29.80;99.90
31575;DHT22;18182;1.328;103.810;2022-11-11T01:40:00;29.90;99.90
31575;DHT22;18182;1.328;103.810;2022-11-11T01:42:27;29.90;99.90
31575;DHT22;18182;1.328;103.810;2022-11-11T01:44:53;29.80;99.90
31575;DHT22;18182;1.328;103.810;2022-11-11T01:47:19;29.90;99.90
31575;DHT22;18182;1.328;103.810;2022-11-11T01:49:55;29.80;99.90
31575;DHT22;18182;1.328;103.810;2022-11-11T01:52:25;29.90;99.90
31575;DHT22;18182;1.328;103.810;2022-11-11T01:57:22;30.00;99.90
31575;DHT22;18182;1.328;103.810;2022-11-11T01:59:52;30.00;99.90
31575;DHT22;18182;1.328;103.810;2022-11-11T02:05:04;30.00;99.90
31575;DHT22;18182;1.328;103.810;2022-11-11T02:07:49;30.10;99.90
31575;DHT22;18182;1.328;103.810;2022-11-11T02:10:17;30.20;99.90
31575;DHT22;18182;1.328;103.810;2022-11-11T02:12:46;30.30;99.90
31575;DHT22;18182;1.328;103.810;2022-11-11T02:15:30;30.30;99.90
31575;DHT22;18182;1.328;103.810;2022-11-11T02:17:57;30.20;99.90
31575;DHT22;18182;1.328;103.810;2022-11-11T02:20:24;30.30;99.90
31575;DHT22;18182;1.328;103.810;2022-11-11T02:22:51;30.40;99.90
31575;DHT22;18182;1.328;103.810;2022-11-11T02:25:23;30.50;99.90
31575;DHT22;18182;1.328;103.810;2022-11-11T02:27:51;30.60;99.90
31575;DHT22;18182;1.328;103.810;2022-11-11T02:30:18;30.60;99.90
31575;DHT22;18182;1.328;103.810;2022-11-11T02:32:46;30.70;99.90
31575;DHT22;18182;1.328;103.810;2022-11-11T02:35:17;30.60;99.90
31575;DHT22;18182;1.328;103.810;2022-11-11T02:37:44;30.60;99.90
31575;DHT22;18182;1.328;103.810;2022-11-11T02:40:12;30.50;99.90
31575;DHT22;18182;1.328;103.810;2022-11-11T02:42:38;30.50;99.90
31575;DHT22;18182;1.328;103.810;2022-11-11T02:45:05;30.40;99.90
31575;DHT22;18182;1.328;103.810;2022-11-11T02:47:31;30.50;99.90
31575;DHT22;18182;1.328;103.810;2022-11-11T02:49:57;30.50;99.90
31575;DHT22;18182;1.328;103.810;2022-11-11T02:52:23;30.50;99.90
31575;DHT22;18182;1.328;103.810;2022-11-11T02:54:49;30.60;99.90
31575;DHT22;18182;1.328;103.810;2022-11-11T02:57:15;30.70;99.90
31575;DHT22;18182;1.328;103.810;2022-11-11T02:59:42;30.80;99.90
31575;DHT22;18182;1.328;103.810;2022-11-11T03:02:08;30.80;99.90
31575;DHT22;18182;1.328;103.810;2022-11-11T03:04:34;30.70;99.90
31575;DHT22;18182;1.328;103.810;2022-11-11T03:07:02;30.70;99.90
31575;DHT22;18182;1.328;103.810;2022-11-11T03:09:28;30.80;99.90
31575;DHT22;18182;1.328;103.810;2022-11-11T03:11:54;30.90;99.90
31575;DHT22;18182;1.328;103.810;2022-11-11T03:14:21;30.90;99.90
31575;DHT22;18182;1.328;103.810;2022-11-11T03:16:47;30.90;99.90
31575;DHT22;18182;1.328;103.810;2022-11-11T03:19:31;30.90;99.90
31575;DHT22;18182;1.328;103.810;2022-11-11T03:21:57;30.80;99.90
31575;DHT22;18182;1.328;103.810;2022-11-11T03:24:24;30.90;99.90
31575;DHT22;18182;1.328;103.810;2022-11-11T03:27:10;30.80;99.90
31575;DHT22;18182;1.328;103.810;2022-11-11T03:29:36;30.80;99.90
31575;DHT22;18182;1.328;103.810;2022-11-11T03:32:04;30.70;99.90
31575;DHT22;18182;1.328;103.810;2022-11-11T03:34:30;30.60;99.90
31575;DHT22;18182;1.328;103.810;2022-11-11T03:36:56;30.60;99.90
31575;DHT22;18182;1.328;103.810;2022-11-11T03:39:40;30.60;99.90
31575;DHT22;18182;1.328;103.810;2022-11-11T03:42:06;30.60;99.90
31575;DHT22;18182;1.328;103.810;2022-11-11T03:44:32;30.50;99.90
31575;DHT22;18182;1.328;103.810;2022-11-11T03:46:59;30.50;99.90
31575;DHT22;18182;1.328;103.810;2022-11-11T03:49:25;30.60;99.90
31575;DHT22;18182;1.328;103.810;2022-11-11T03:51:51;30.70;99.90
31575;DHT22;18182;1.328;103.810;2022-11-11T03:54:17;30.70;99.90
31575;DHT22;18182;1.328;103.810;2022-11-11T03:56:43;30.80;99.90
31575;DHT22;18182;1.328;103.810;2022-11-11T03:59:09;31.00;99.90
31575;DHT22;18182;1.328;103.810;2022-11-11T04:01:35;30.90;99.90
31575;DHT22;18182;1.328;103.810;2022-11-11T04:04:19;30.80;99.90
31575;DHT22;18182;1.328;103.810;2022-11-11T04:07:04;30.80;99.90
31575;DHT22;18182;1.328;103.810;2022-11-11T04:09:48;30.80;99.90
31575;DHT22;18182;1.328;103.810;2022-11-11T04:12:33;30.90;99.90
31575;DHT22;18182;1.328;103.810;2022-11-11T04:15:19;31.00;99.90
31575;DHT22;18182;1.328;103.810;2022-11-11T04:18:03;31.00;99.90
31575;DHT22;18182;1.328;103.810;2022-11-11T04:20:30;30.90;99.90
31575;DHT22;18182;1.328;103.810;2022-11-11T04:23:14;30.80;99.90
31575;DHT22;18182;1.328;103.810;2022-11-11T04:25:40;30.70;99.90
31575;DHT22;18182;1.328;103.810;2022-11-11T04:28:17;30.60;99.90
31575;DHT22;18182;1.328;103.810;2022-11-11T04:31:02;30.50;99.90
31575;DHT22;18182;1.328;103.810;2022-11-11T04:33:28;30.40;99.90
31575;DHT22;18182;1.328;103.810;2022-11-11T04:35:54;30.40;99.90
31575;DHT22;18182;1.328;103.810;2022-11-11T04:38:20;30.30;99.90
31575;DHT22;18182;1.328;103.810;2022-11-11T04:41:05;30.30;99.90
31575;DHT22;18182;1.328;103.810;2022-11-11T04:43:33;30.30;99.90
31575;DHT22;18182;1.328;103.810;2022-11-11T04:46:22;30.30;99.90
31575;DHT22;18182;1.328;103.810;2022-11-11T04:48:48;30.30;99.90
31575;DHT22;18182;1.328;103.810;2022-11-11T04:51:14;30.40;99.90
31575;DHT22;18182;1.328;103.810;2022-11-11T04:53:40;30.40;99.90
31575;DHT22;18182;1.328;103.810;2022-11-11T04:56:07;30.40;99.90
31575;DHT22;18182;1.328;103.810;2022-11-11T04:58:51;30.40;99.90
31575;DHT22;18182;1.328;103.810;2022-11-11T05:01:37;30.30;99.90
31575;DHT22;18182;1.328;103.810;2022-11-11T05:04:21;30.30;99.90
31575;DHT22;18182;1.328;103.810;2022-11-11T05:06:48;30.30;99.90
31575;DHT22;18182;1.328;103.810;2022-11-11T05:09:32;30.30;99.90
31575;DHT22;18182;1.328;103.810;2022-11-11T05:11:58;30.30;99.90
31575;DHT22;18182;1.328;103.810;2022-11-11T05:14:24;30.20;99.90
31575;DHT22;18182;1.328;103.810;2022-11-11T05:17:08;30.20;99.90
31575;DHT22;18182;1.328;103.810;2022-11-11T05:19:53;30.20;99.90
31575;DHT22;18182;1.328;103.810;2022-11-11T05:22:38;30.10;99.90
31575;DHT22;18182;1.328;103.810;2022-11-11T05:25:05;30.00;99.90
31575;DHT22;18182;1.328;103.810;2022-11-11T05:27:50;29.80;99.90
31575;DHT22;18182;1.328;103.810;2022-11-11T05:30:17;29.60;99.90
31575;DHT22;18182;1.328;103.810;2022-11-11T05:32:43;29.50;99.90
31575;DHT22;18182;1.328;103.810;2022-11-11T05:35:09;29.50;99.90
31575;DHT22;18182;1.328;103.810;2022-11-11T05:37:37;29.50;99.90
31575;DHT22;18182;1.328;103.810;2022-11-11T05:40:04;29.60;99.90
31575;DHT22;18182;1.328;103.810;2022-11-11T05:42:30;29.50;99.90
31575;DHT22;18182;1.328;103.810;2022-11-11T05:44:56;29.50;99.90
31575;DHT22;18182;1.328;103.810;2022-11-11T05:47:23;29.40;99.90
31575;DHT22;18182;1.328;103.810;2022-11-11T05:49:49;29.40;99.90
31575;DHT22;18182;1.328;103.810;2022-11-11T05:52:15;29.50;99.90
31575;DHT22;18182;1.328;103.810;2022-11-11T05:54:42;29.60;99.90
31575;DHT22;18182;1.328;103.810;2022-11-11T05:57:08;29.70;99.90
31575;DHT22;18182;1.328;103.810;2022-11-11T05:59:35;29.60;99.90
31575;DHT22;18182;1.328;103.810;2022-11-11T06:02:01;29.70;99.90
31575;DHT22;18182;1.328;103.810;2022-11-11T06:04:27;29.80;99.90
31575;DHT22;18182;1.328;103.810;2022-11-11T06:06:54;29.80;99.90
31575;DHT22;18182;1.328;103.810;2022-11-11T06:09:20;29.80;99.90
31575;DHT22;18182;1.328;103.810;2022-11-11T06:11:46;29.80;99.90
31575;DHT22;18182;1.328;103.810;2022-11-11T06:14:12;29.80;99.90
31575;DHT22;18182;1.328;103.810;2022-11-11T06:16:41;29.80;99.90
31575;DHT22;18182;1.328;103.810;2022-11-11T06:19:07;29.80;99.90
31575;DHT22;18182;1.328;103.810;2022-11-11T06:21:33;29.80;99.90
31575;DHT22;18182;1.328;103.810;2022-11-11T06:24:19;29.80;99.90
31575;DHT22;18182;1.328;103.810;2022-11-11T06:26:45;29.90;99.90
31575;DHT22;18182;1.328;103.810;2022-11-11T06:29:12;29.90;99.90
31575;DHT22;18182;1.328;103.810;2022-11-11T06:31:38;29.90;99.90
31575;DHT22;18182;1.328;103.810;2022-11-11T06:34:04;30.00;99.90
31575;DHT22;18182;1.328;103.810;2022-11-11T06:36:30;30.10;99.90
31575;DHT22;18182;1.328;103.810;2022-11-11T06:38:56;30.10;99.90
31575;DHT22;18182;1.328;103.810;2022-11-11T06:41:22;30.10;99.90
31575;DHT22;18182;1.328;103.810;2022-11-11T06:43:50;30.10;99.90
31575;DHT22;18182;1.328;103.810;2022-11-11T06:46:23;30.20;99.90
31575;DHT22;18182;1.328;103.810;2022-11-11T06:48:49;30.20;99.90
31575;DHT22;18182;1.328;103.810;2022-11-11T06:51:16;30.20;99.90
31575;DHT22;18182;1.328;103.810;2022-11-11T06:53:43;30.20;99.90
31575;DHT22;18182;1.328;103.810;2022-11-11T06:56:09;30.20;99.90
31575;DHT22;18182;1.328;103.810;2022-11-11T06:58:37;30.30;99.90
31575;DHT22;18182;1.328;103.810;2022-11-11T07:01:06;30.50;99.90
31575;DHT22;18182;1.328;103.810;2022-11-11T07:03:32;30.60;99.90
31575;DHT22;18182;1.328;103.810;2022-11-11T07:05:59;30.70;99.90
31575;DHT22;18182;1.328;103.810;2022-11-11T07:08:26;30.90;99.90
31575;DHT22;18182;1.328;103.810;2022-11-11T07:10:52;31.00;99.90
31575;DHT22;18182;1.328;103.810;2022-11-11T07:13:18;30.90;99.90
31575;DHT22;18182;1.328;103.810;2022-11-11T07:15:44;30.70;99.90
31575;DHT22;18182;1.328;103.810;2022-11-11T07:18:10;30.60;99.90
31575;DHT22;18182;1.328;103.810;2022-11-11T07:20:37;30.50;99.90
31575;DHT22;18182;1.328;103.810;2022-11-11T07:23:03;30.50;99.90
31575;DHT22;18182;1.328;103.810;2022-11-11T07:25:29;30.50;99.90
31575;DHT22;18182;1.328;103.810;2022-11-11T07:27:56;30.50;99.90
31575;DHT22;18182;1.328;103.810;2022-11-11T07:30:22;30.50;99.90
31575;DHT22;18182;1.328;103.810;2022-11-11T07:32:50;30.60;99.90
31575;DHT22;18182;1.328;103.810;2022-11-11T07:35:17;30.80;99.90
31575;DHT22;18182;1.328;103.810;2022-11-11T07:37:52;30.90;99.90
31575;DHT22;18182;1.328;103.810;2022-11-11T07:40:18;30.90;99.90
31575;DHT22;18182;1.328;103.810;2022-11-11T07:42:45;30.80;99.90
31575;DHT22;18182;1.328;103.810;2022-11-11T07:45:11;30.80;99.90
31575;DHT22;18182;1.328;103.810;2022-11-11T07:47:37;30.80;99.90
31575;DHT22;18182;1.328;103.810;2022-11-11T07:50:05;30.80;99.90
31575;DHT22;18182;1.328;103.810;2022-11-11T07:52:31;30.60;99.90
31575;DHT22;18182;1.328;103.810;2022-11-11T07:54:58;30.60;99.90
31575;DHT22;18182;1.328;103.810;2022-11-11T07:57:24;30.60;99.90
31575;DHT22;18182;1.328;103.810;2022-11-11T07:59:50;30.60;99.90
31575;DHT22;18182;1.328;103.810;2022-11-11T08:02:16;30.60;99.90
31575;DHT22;18182;1.328;103.810;2022-11-11T08:04:42;30.50;99.90
31575;DHT22;18182;1.328;103.810;2022-11-11T08:07:08;30.50;99.90
31575;DHT22;18182;1.328;103.810;2022-11-11T08:09:35;30.60;99.90
31575;DHT22;18182;1.328;103.810;2022-11-11T08:12:01;30.60;99.90
31575;DHT22;18182;1.328;103.810;2022-11-11T08:14:45;30.70;99.90
31575;DHT22;18182;1.328;103.810;2022-11-11T08:17:11;30.80;99.90
31575;DHT22;18182;1.328;103.810;2022-11-11T08:19:37;30.80;99.90
31575;DHT22;18182;1.328;103.810;2022-11-11T08:22:03;30.80;99.90
31575;DHT22;18182;1.328;103.810;2022-11-11T08:24:30;30.80;99.90
31575;DHT22;18182;1.328;103.810;2022-11-11T08:26:56;30.90;99.90
31575;DHT22;18182;1.328;103.810;2022-11-11T08:29:23;31.00;99.90
31575;DHT22;18182;1.328;103.810;2022-11-11T08:31:50;31.00;99.90
31575;DHT22;18182;1.328;103.810;2022-11-11T08:34:16;30.90;99.90
31575;DHT22;18182;1.328;103.810;2022-11-11T08:36:43;30.80;99.90
31575;DHT22;18182;1.328;103.810;2022-11-11T08:39:09;30.70;99.90
31575;DHT22;18182;1.328;103.810;2022-11-11T08:41:36;30.70;99.90
31575;DHT22;18182;1.328;103.810;2022-11-11T08:44:02;30.60;99.90
31575;DHT22;18182;1.328;103.810;2022-11-11T08:46:29;30.60;99.90
31575;DHT22;18182;1.328;103.810;2022-11-11T08:48:55;30.60;99.90
31575;DHT22;18182;1.328;103.810;2022-11-11T08:51:21;30.50;99.90
31575;DHT22;18182;1.328;103.810;2022-11-11T08:53:48;30.50;99.90
31575;DHT22;18182;1.328;103.810;2022-11-11T08:56:14;30.40;99.90
31575;DHT22;18182;1.328;103.810;2022-11-11T08:58:40;30.40;99.90
31575;DHT22;18182;1.328;103.810;2022-11-11T09:01:09;30.40;99.90
31575;DHT22;18182;1.328;103.810;2022-11-11T09:03:35;30.30;99.90
31575;DHT22;18182;1.328;103.810;2022-11-11T09:06:01;30.30;99.90
31575;DHT22;18182;1.328;103.810;2022-11-11T09:08:28;30.20;99.90
31575;DHT22;18182;1.328;103.810;2022-11-11T09:10:56;30.20;99.90
31575;DHT22;18182;1.328;103.810;2022-11-11T09:13:22;30.20;99.90
31575;DHT22;18182;1.328;103.810;2022-11-11T09:15:48;30.30;99.90
31575;DHT22;18182;1.328;103.810;2022-11-11T09:18:17;30.30;99.90
31575;DHT22;18182;1.328;103.810;2022-11-11T09:20:43;30.20;99.90
31575;DHT22;18182;1.328;103.810;2022-11-11T09:23:10;30.10;99.90
31575;DHT22;18182;1.328;103.810;2022-11-11T09:25:36;30.10;99.90
31575;DHT22;18182;1.328;103.810;2022-11-11T09:28:03;30.00;99.90
31575;DHT22;18182;1.328;103.810;2022-11-11T09:30:29;29.90;99.90
31575;DHT22;18182;1.328;103.810;2022-11-11T09:32:59;29.80;99.90
31575;DHT22;18182;1.328;103.810;2022-11-11T09:35:26;29.80;99.90
31575;DHT22;18182;1.328;103.810;2022-11-11T09:37:52;29.70;99.90
31575;DHT22;18182;1.328;103.810;2022-11-11T09:40:20;29.80;99.90
31575;DHT22;18182;1.328;103.810;2022-11-11T09:42:55;29.70;99.90
31575;DHT22;18182;1.328;103.810;2022-11-11T09:50:50;29.60;99.90
31575;DHT22;18182;1.328;103.810;2022-11-11T09:53:21;29.60;99.90
31575;DHT22;18182;1.328;103.810;2022-11-11T09:55:57;29.50;99.90
31575;DHT22;18182;1.328;103.810;2022-11-11T10:01:39;29.50;99.90
31575;DHT22;18182;1.328;103.810;2022-11-11T10:04:04;29.50;99.90
31575;DHT22;18182;1.328;103.810;2022-11-11T10:06:27;29.40;99.90
31575;DHT22;18182;1.328;103.810;2022-11-11T10:08:58;29.40;99.90
31575;DHT22;18182;1.328;103.810;2022-11-11T10:14:11;29.30;99.90
31575;DHT22;18182;1.328;103.810;2022-11-11T10:19:23;29.30;99.90
31575;DHT22;18182;1.328;103.810;2022-11-11T10:22:37;29.40;99.90
31575;DHT22;18182;1.328;103.810;2022-11-11T10:24:39;29.40;99.90
31575;DHT22;18182;1.328;103.810;2022-11-11T10:27:10;29.40;99.90
31575;DHT22;18182;1.328;103.810;2022-11-11T10:29:42;29.40;99.90
31575;DHT22;18182;1.328;103.810;2022-11-11T10:34:38;29.40;99.90
31575;DHT22;18182;1.328;103.810;2022-11-11T10:37:14;29.40;99.90
31575;DHT22;18182;1.328;103.810;2022-11-11T10:42:11;29.40;99.90
31575;DHT22;18182;1.328;103.810;2022-11-11T10:44:40;29.30;99.90
31575;DHT22;18182;1.328;103.810;2022-11-11T10:49:51;29.20;99.90
31575;DHT22;18182;1.328;103.810;2022-11-11T10:52:20;29.30;99.90
31575;DHT22;18182;1.328;103.810;2022-11-11T10:57:31;29.20;99.90
31575;DHT22;18182;1.328;103.810;2022-11-11T11:00:00;29.20;99.90
31575;DHT22;18182;1.328;103.810;2022-11-11T11:02:32;29.10;99.90
31575;DHT22;18182;1.328;103.810;2022-11-11T11:05:07;29.10;99.90
31575;DHT22;18182;1.328;103.810;2022-11-11T11:07:39;29.00;99.90
31575;DHT22;18182;1.328;103.810;2022-11-11T11:12:52;29.00;99.90
31575;DHT22;18182;1.328;103.810;2022-11-11T11:15:23;29.00;99.90
31575;DHT22;18182;1.328;103.810;2022-11-11T11:17:52;28.90;99.90
31575;DHT22;18182;1.328;103.810;2022-11-11T11:20:20;29.00;99.90
31575;DHT22;18182;1.328;103.810;2022-11-11T11:22:47;28.90;99.90
31575;DHT22;18182;1.328;103.810;2022-11-11T11:25:14;29.00;99.90
31575;DHT22;18182;1.328;103.810;2022-11-11T11:27:40;29.00;99.90
31575;DHT22;18182;1.328;103.810;2022-11-11T11:30:11;29.00;99.90
31575;DHT22;18182;1.328;103.810;2022-11-11T11:32:38;29.00;99.90
31575;DHT22;18182;1.328;103.810;2022-11-11T11:35:07;29.10;99.90
31575;DHT22;18182;1.328;103.810;2022-11-11T11:37:47;29.10;99.90
31575;DHT22;18182;1.328;103.810;2022-11-11T11:40:13;29.10;99.90
31575;DHT22;18182;1.328;103.810;2022-11-11T11:42:40;29.00;99.90
31575;DHT22;18182;1.328;103.810;2022-11-11T12:00:14;29.10;99.90
31575;DHT22;18182;1.328;103.810;2022-11-11T12:08:10;29.00;99.90
31575;DHT22;18182;1.328;103.810;2022-11-11T12:15:38;29.10;99.90
31575;DHT22;18182;1.328;103.810;2022-11-11T12:36:36;29.00;99.90
31575;DHT22;18182;1.328;103.810;2022-11-11T12:39:12;28.90;99.90
31575;DHT22;18182;1.328;103.810;2022-11-11T12:44:11;28.90;99.90
31575;DHT22;18182;1.328;103.810;2022-11-11T12:51:53;28.90;99.90
31575;DHT22;18182;1.328;103.810;2022-11-11T12:54:30;28.90;99.90
31575;DHT22;18182;1.328;103.810;2022-11-11T13:07:21;28.90;99.90
31575;DHT22;18182;1.328;103.810;2022-11-11T13:15:28;28.90;99.90
31575;DHT22;18182;1.328;103.810;2022-11-11T13:17:54;28.90;99.90
31575;DHT22;18182;1.328;103.810;2022-11-11T13:22:50;28.90;99.90
31575;DHT22;18182;1.328;103.810;2022-11-11T13:25:27;28.90;99.90
31575;DHT22;18182;1.328;103.810;2022-11-11T13:28:05;28.90;99.90
31575;DHT22;18182;1.328;103.810;2022-11-11T13:33:06;28.90;99.90
31575;DHT22;18182;1.328;103.810;2022-11-11T13:35:35;28.90;99.90
31575;DHT22;18182;1.328;103.810;2022-11-11T13:38:02;28.90;99.90
31575;DHT22;18182;1.328;103.810;2022-11-11T13:43:02;28.90;99.90
31575;DHT22;18182;1.328;103.810;2022-11-11T13:45:31;28.80;99.90
31575;DHT22;18182;1.328;103.810;2022-11-11T13:47:58;28.80;99.90
31575;DHT22;18182;1.328;103.810;2022-11-11T13:50:32;28.80;99.90
31575;DHT22;18182;1.328;103.810;2022-11-11T13:55:40;28.80;99.90
31575;DHT22;18182;1.328;103.810;2022-11-11T13:58:06;28.80;99.90
31575;DHT22;18182;1.328;103.810;2022-11-11T14:00:44;28.80;99.90
31575;DHT22;18182;1.328;103.810;2022-11-11T14:05:43;28.80;99.90
31575;DHT22;18182;1.328;103.810;2022-11-11T14:08:09;28.70;99.90
31575;DHT22;18182;1.328;103.810;2022-11-11T14:10:57;28.70;99.90
31575;DHT22;18182;1.328;103.810;2022-11-11T14:15:56;28.70;99.90
31575;DHT22;18182;1.328;103.810;2022-11-11T14:20:52;28.70;99.90
31575;DHT22;18182;1.328;103.810;2022-11-11T14:52:22;28.60;99.90
31575;DHT22;18182;1.328;103.810;2022-11-11T14:57:22;28.60;99.90
31575;DHT22;18182;1.328;103.810;2022-11-11T14:59:49;28.50;99.90
31575;DHT22;18182;1.328;103.810;2022-11-11T15:02:51;28.50;99.90
31575;DHT22;18182;1.328;103.810;2022-11-11T15:05:16;28.50;99.90
31575;DHT22;18182;1.328;103.810;2022-11-11T15:07:58;28.40;99.90
31575;DHT22;18182;1.328;103.810;2022-11-11T15:10:30;28.50;99.90
31575;DHT22;18182;1.328;103.810;2022-11-11T15:15:25;28.40;99.90
31575;DHT22;18182;1.328;103.810;2022-11-11T15:17:56;28.40;99.90
31575;DHT22;18182;1.328;103.810;2022-11-11T15:23:16;28.40;99.90
31575;DHT22;18182;1.328;103.810;2022-11-11T15:25:51;28.50;99.90
31575;DHT22;18182;1.328;103.810;2022-11-11T15:35:54;28.40;99.90
31575;DHT22;18182;1.328;103.810;2022-11-11T15:38:22;28.50;99.90
31575;DHT22;18182;1.328;103.810;2022-11-11T15:40:50;28.50;99.90
31575;DHT22;18182;1.328;103.810;2022-11-11T15:43:19;28.40;99.90
31575;DHT22;18182;1.328;103.810;2022-11-11T15:45:49;28.40;99.90
31575;DHT22;18182;1.328;103.810;2022-11-11T15:48:16;28.40;99.90
31575;DHT22;18182;1.328;103.810;2022-11-11T15:50:43;28.40;99.90
31575;DHT22;18182;1.328;103.810;2022-11-11T15:53:12;28.40;99.90
31575;DHT22;18182;1.328;103.810;2022-11-11T15:55:38;28.40;99.90
31575;DHT22;18182;1.328;103.810;2022-11-11T15:58:14;28.40;99.90
31575;DHT22;18182;1.328;103.810;2022-11-11T16:00:41;28.40;99.90
31575;DHT22;18182;1.328;103.810;2022-11-11T16:06:13;28.40;99.90
31575;DHT22;18182;1.328;103.810;2022-11-11T16:08:40;28.40;99.90
31575;DHT22;18182;1.328;103.810;2022-11-11T16:11:08;28.40;99.90
31575;DHT22;18182;1.328;103.810;2022-11-11T16:13:37;28.30;99.90
31575;DHT22;18182;1.328;103.810;2022-11-11T16:16:06;28.30;99.90
31575;DHT22;18182;1.328;103.810;2022-11-11T16:23:38;28.20;99.90
31575;DHT22;18182;1.328;103.810;2022-11-11T16:26:05;28.20;99.90
31575;DHT22;18182;1.328;103.810;2022-11-11T16:28:36;28.20;99.90
31575;DHT22;18182;1.328;103.810;2022-11-11T16:36:59;28.20;99.90
31575;DHT22;18182;1.328;103.810;2022-11-11T16:39:25;28.20;99.90
31575;DHT22;18182;1.328;103.810;2022-11-11T16:41:52;28.20;99.90
31575;DHT22;18182;1.328;103.810;2022-11-11T16:44:31;28.30;99.90
31575;DHT22;18182;1.328;103.810;2022-11-11T16:46:58;28.30;99.90
31575;DHT22;18182;1.328;103.810;2022-11-11T16:51:50;28.20;99.90
31575;DHT22;18182;1.328;103.810;2022-11-11T16:54:17;28.20;99.90
31575;DHT22;18182;1.328;103.810;2022-11-11T16:56:46;28.20;99.90
31575;DHT22;18182;1.328;103.810;2022-11-11T16:59:15;28.20;99.90
31575;DHT22;18182;1.328;103.810;2022-11-11T17:01:42;28.10;99.90
31575;DHT22;18182;1.328;103.810;2022-11-11T17:04:10;28.10;99.90
31575;DHT22;18182;1.328;103.810;2022-11-11T17:06:47;28.10;99.90
31575;DHT22;18182;1.328;103.810;2022-11-11T17:12:08;28.10;99.90
31575;DHT22;18182;1.328;103.810;2022-11-11T17:14:35;28.10;99.90
31575;DHT22;18182;1.328;103.810;2022-11-11T17:17:02;28.10;99.90
31575;DHT22;18182;1.328;103.810;2022-11-11T17:19:30;28.20;99.90
31575;DHT22;18182;1.328;103.810;2022-11-11T17:22:08;28.20;99.90
31575;DHT22;18182;1.328;103.810;2022-11-11T17:24:35;28.20;99.90
31575;DHT22;18182;1.328;103.810;2022-11-11T17:27:02;28.20;99.90
31575;DHT22;18182;1.328;103.810;2022-11-11T17:29:28;28.10;99.90
31575;DHT22;18182;1.328;103.810;2022-11-11T17:31:55;28.10;99.90
31575;DHT22;18182;1.328;103.810;2022-11-11T17:34:21;28.10;99.90
31575;DHT22;18182;1.328;103.810;2022-11-11T17:36:47;28.10;99.90
31575;DHT22;18182;1.328;103.810;2022-11-11T17:39:13;28.10;99.90
31575;DHT22;18182;1.328;103.810;2022-11-11T17:41:39;28.10;99.90
31575;DHT22;18182;1.328;103.810;2022-11-11T17:44:05;28.10;99.90
31575;DHT22;18182;1.328;103.810;2022-11-11T17:46:32;28.10;99.90
31575;DHT22;18182;1.328;103.810;2022-11-11T17:48:58;28.10;99.90
31575;DHT22;18182;1.328;103.810;2022-11-11T17:51:24;28.10;99.90
31575;DHT22;18182;1.328;103.810;2022-11-11T17:53:51;28.10;99.90
31575;DHT22;18182;1.328;103.810;2022-11-11T17:56:17;28.10;99.90
31575;DHT22;18182;1.328;103.810;2022-11-11T17:58:43;28.10;99.90
31575;DHT22;18182;1.328;103.810;2022-11-11T18:01:11;28.00;99.90
31575;DHT22;18182;1.328;103.810;2022-11-11T18:03:39;28.00;99.90
31575;DHT22;18182;1.328;103.810;2022-11-11T18:06:06;28.00;99.90
31575;DHT22;18182;1.328;103.810;2022-11-11T18:08:32;28.00;99.90
31575;DHT22;18182;1.328;103.810;2022-11-11T18:10:59;28.00;99.90
31575;DHT22;18182;1.328;103.810;2022-11-11T18:13:25;28.00;99.90
31575;DHT22;18182;1.328;103.810;2022-11-11T18:15:51;27.90;99.90
31575;DHT22;18182;1.328;103.810;2022-11-11T18:18:19;28.00;99.90
31575;DHT22;18182;1.328;103.810;2022-11-11T18:20:45;27.90;99.90
31575;DHT22;18182;1.328;103.810;2022-11-11T18:23:11;27.90;99.90
31575;DHT22;18182;1.328;103.810;2022-11-11T18:25:37;28.00;99.90
31575;DHT22;18182;1.328;103.810;2022-11-11T18:28:06;28.00;99.90